createdAt,value
2019-04-07T00:00:07.668Z,86.37
2019-04-07T00:02:36.229Z,86.21
2019-04-07T00:05:11.876Z,85.92
2019-04-07T00:07:37.136Z,85.96
2019-04-07T00:10:09.832Z,85.67
2019-04-07T00:12:38.277Z,87.34
2019-04-07T00:15:07.077Z,87.90
2019-04-07T00:17:36.155Z,87.62
2019-04-07T00:20:06.637Z,87.01
2019-04-07T00:22:35.785Z,88.04
2019-04-07T00:25:05.763Z,88.60
2019-04-07T00:27:34.179Z,89.18
2019-04-07T00:30:02.653Z,89.19
2019-04-07T00:32:31.303Z,89.08
2019-04-07T00:34:59.949Z,89.84
2019-04-07T00:37:28.527Z,90.26
2019-04-07T00:39:56.985Z,89.90
2019-04-07T00:42:25.915Z,89.62
2019-04-07T00:44:54.513Z,89.98
2019-04-07T00:47:23.413Z,89.70
2019-04-07T00:49:52.189Z,89.75
2019-04-07T00:52:22.406Z,90.30
2019-04-07T00:54:51.320Z,91.58
2019-04-07T00:57:19.936Z,92.68
2019-04-07T00:59:48.883Z,93.04
2019-04-07T01:02:17.821Z,92.34
2019-04-07T01:04:46.292Z,91.90
2019-04-07T01:07:15.524Z,91.78
2019-04-07T01:09:44.149Z,91.50
2019-04-07T01:12:12.850Z,91.14
2019-04-07T01:14:41.756Z,91.00
2019-04-07T01:17:10.735Z,91.44
2019-04-07T01:19:39.818Z,90.81
2019-04-07T01:22:08.992Z,90.39
2019-04-07T01:24:37.985Z,90.24
2019-04-07T01:27:06.680Z,90.09
2019-04-07T01:29:35.390Z,90.28
2019-04-07T01:32:04.085Z,90.83
2019-04-07T01:34:32.581Z,92.74
2019-04-07T01:37:01.092Z,93.14
2019-04-07T01:39:29.527Z,92.35
2019-04-07T01:42:05.902Z,91.90
2019-04-07T01:44:36.595Z,91.18
2019-04-07T01:47:12.439Z,91.15
2019-04-07T01:49:44.500Z,90.43
2019-04-07T01:52:15.274Z,90.27
2019-04-07T01:54:48.249Z,89.74
2019-04-07T01:57:35.460Z,89.98
2019-04-07T02:00:14.115Z,89.90
2019-04-07T02:02:44.465Z,90.64
2019-04-07T02:05:15.524Z,90.96
2019-04-07T02:07:54.267Z,90.71
2019-04-07T02:10:24.357Z,90.84
2019-04-07T02:13:07.415Z,91.37
2019-04-07T02:15:40.594Z,91.39
2019-04-07T02:18:13.749Z,91.69
2019-04-07T02:21:05.432Z,91.43
2019-04-07T02:23:44.687Z,90.71
2019-04-07T02:26:33.204Z,90.83
2019-04-07T02:29:19.195Z,90.33
2019-04-07T02:32:01.675Z,90.85
2019-04-07T02:34:34.453Z,91.21
2019-04-07T02:37:10.722Z,91.74
2019-04-07T02:39:48.564Z,92.17
2019-04-07T02:42:21.655Z,92.25
2019-04-07T02:45:09.229Z,92.42
2019-04-07T02:47:48.575Z,92.27
2019-04-07T02:50:18.741Z,91.98
2019-04-07T02:52:49.188Z,91.95
2019-04-07T02:55:19.584Z,92.50
2019-04-07T02:58:05.975Z,92.45
2019-04-07T03:00:52.534Z,92.03
2019-04-07T03:03:27.041Z,91.97
2019-04-07T03:06:00.426Z,92.88
2019-04-07T03:08:36.406Z,92.92
2019-04-07T03:11:24.873Z,93.24
2019-04-07T03:13:55.001Z,93.18
2019-04-07T03:16:37.532Z,92.65
2019-04-07T03:19:10.719Z,91.90
2019-04-07T03:21:56.055Z,92.26
2019-04-07T03:24:26.663Z,93.96
2019-04-07T03:27:03.044Z,94.09
2019-04-07T03:29:34.011Z,93.98
2019-04-07T03:32:06.151Z,94.25
2019-04-07T03:34:40.920Z,93.95
2019-04-07T03:37:26.033Z,94.97
2019-04-07T03:39:51.319Z,95.74
2019-04-07T03:42:34.312Z,95.66
2019-04-07T03:45:04.499Z,95.21
2019-04-07T03:47:41.740Z,95.94
2019-04-07T03:50:25.193Z,96.43
2019-04-07T03:53:12.431Z,96.08
2019-04-07T03:55:54.640Z,95.71
2019-04-07T03:58:39.832Z,96.73
2019-04-07T04:01:25.895Z,97.30
2019-04-07T04:04:11.345Z,98.33
2019-04-07T04:06:57.591Z,98.32
2019-04-07T04:09:37.102Z,98.34
2019-04-07T04:12:22.714Z,98.59
2019-04-07T04:14:52.907Z,99.23
2019-04-07T04:17:21.357Z,98.77
2019-04-07T04:19:49.767Z,97.83
2019-04-07T04:22:18.685Z,97.60
2019-04-07T04:24:47.233Z,98.26
2019-04-07T04:27:15.635Z,98.14
2019-04-07T04:29:44.935Z,98.27
2019-04-07T04:32:13.551Z,98.65
2019-04-07T04:34:43.156Z,98.77
2019-04-07T04:37:12.602Z,98.60
2019-04-07T04:39:41.194Z,98.66
2019-04-07T04:42:10.432Z,98.60
2019-04-07T04:44:38.919Z,98.64
2019-04-07T04:47:08.073Z,98.70
2019-04-07T04:49:37.115Z,99.01
2019-04-07T04:52:05.836Z,98.90
2019-04-07T04:54:35.264Z,98.50
2019-04-07T04:57:06.442Z,98.21
2019-04-07T04:59:33.941Z,98.06
2019-04-07T05:02:02.399Z,98.12
2019-04-07T05:04:30.824Z,98.43
2019-04-07T05:06:59.440Z,98.78
2019-04-07T05:09:40.228Z,98.27
2019-04-07T05:11:58.731Z,98.09
2019-04-07T05:14:27.535Z,98.80
2019-04-07T05:16:56.136Z,99.21
2019-04-07T05:19:24.705Z,99.56
2019-04-07T05:21:53.194Z,99.46
2019-04-07T05:24:22.092Z,99.04
2019-04-07T05:26:50.907Z,99.15
2019-04-07T05:29:20.079Z,99.45
2019-04-07T05:31:49.149Z,100.00
2019-04-07T05:34:20.418Z,100.00
2019-04-07T05:36:47.893Z,99.96
2019-04-07T05:39:16.544Z,99.88
2019-04-07T05:41:45.100Z,99.78
2019-04-07T05:44:13.599Z,99.61
2019-04-07T05:46:42.613Z,99.34
2019-04-07T05:49:12.028Z,98.95
2019-04-07T05:51:42.314Z,98.72
2019-04-07T05:54:12.303Z,98.60
2019-04-07T05:56:41.288Z,98.28
2019-04-07T05:59:12.134Z,97.92
2019-04-07T06:01:40.175Z,97.67
2019-04-07T06:04:08.956Z,97.00
2019-04-07T06:06:39.890Z,96.87
2019-04-07T06:09:08.106Z,96.88
2019-04-07T06:11:36.526Z,96.79
2019-04-07T06:14:05.726Z,96.58
2019-04-07T06:16:34.409Z,96.49
2019-04-07T06:19:06.997Z,96.18
2019-04-07T06:21:33.380Z,95.73
2019-04-07T06:24:02.534Z,95.14
2019-04-07T06:26:31.306Z,94.71
2019-04-07T06:28:59.868Z,94.42
2019-04-07T06:31:31.332Z,94.04
2019-04-07T06:33:58.937Z,93.29
2019-04-07T06:36:27.430Z,91.96
2019-04-07T06:38:55.905Z,91.56
2019-04-07T06:41:29.490Z,91.49
2019-04-07T06:44:08.316Z,90.92
2019-04-07T06:46:28.581Z,90.29
2019-04-07T06:48:58.279Z,89.39
2019-04-07T06:51:30.916Z,88.47
2019-04-07T06:54:00.269Z,87.15
2019-04-07T06:56:33.471Z,86.81
2019-04-07T06:59:05.692Z,87.02
2019-04-07T07:01:48.281Z,86.29
2019-04-07T07:04:36.728Z,86.00
2019-04-07T07:07:16.776Z,85.06
2019-04-07T07:09:50.281Z,85.93
2019-04-07T07:12:34.921Z,85.69
2019-04-07T07:15:07.901Z,85.83
2019-04-07T07:17:51.071Z,85.36
2019-04-07T07:20:22.191Z,84.94
2019-04-07T07:22:52.670Z,83.55
2019-04-07T07:25:21.496Z,82.98
2019-04-07T07:27:50.112Z,80.54
2019-04-07T07:30:20.242Z,79.96
2019-04-07T07:32:50.590Z,79.10
2019-04-07T07:35:20.173Z,78.13
2019-04-07T07:37:48.679Z,77.18
2019-04-07T07:40:18.334Z,76.58
2019-04-07T07:42:49.571Z,75.77
2019-04-07T07:45:17.508Z,74.09
2019-04-07T07:47:46.538Z,70.92
2019-04-07T07:50:15.407Z,68.24
2019-04-07T07:52:49.263Z,65.08
2019-04-07T07:55:17.294Z,64.47
2019-04-07T07:57:45.805Z,63.00
2019-04-07T08:00:14.590Z,61.22
2019-04-07T08:02:43.106Z,62.53
2019-04-07T08:05:11.546Z,62.29
2019-04-07T08:07:44.346Z,62.08
2019-04-07T08:10:10.775Z,63.80
2019-04-07T08:12:40.005Z,65.51
2019-04-07T08:15:09.618Z,65.36
2019-04-07T08:17:38.077Z,66.43
2019-04-07T08:20:07.796Z,66.39
2019-04-07T08:22:40.599Z,66.35
2019-04-07T08:25:06.639Z,66.28
2019-04-07T08:27:35.484Z,67.02
2019-04-07T08:30:11.195Z,66.15
2019-04-07T08:32:37.238Z,66.42
2019-04-07T08:35:06.982Z,66.85
2019-04-07T08:37:36.456Z,66.24
2019-04-07T08:40:07.687Z,64.84
2019-04-07T08:42:37.000Z,64.99
2019-04-07T08:45:07.222Z,65.11
2019-04-07T08:47:35.782Z,64.42
2019-04-07T08:50:06.333Z,65.08
2019-04-07T08:52:38.505Z,65.17
2019-04-07T08:55:06.117Z,64.51
2019-04-07T08:57:35.816Z,64.57
2019-04-07T09:00:15.049Z,63.97
2019-04-07T09:02:41.579Z,65.27
2019-04-07T09:05:10.392Z,65.04
2019-04-07T09:07:39.144Z,66.34
2019-04-07T09:10:09.237Z,66.06
2019-04-07T09:12:37.686Z,66.15
2019-04-07T09:15:11.520Z,66.77
2019-04-07T09:17:44.582Z,66.00
2019-04-07T09:20:14.710Z,65.67
2019-04-07T09:22:51.563Z,65.81
2019-04-07T09:25:26.177Z,65.94
2019-04-07T09:28:06.364Z,65.68
2019-04-07T09:30:43.235Z,65.94
2019-04-07T09:33:29.859Z,66.28
2019-04-07T09:36:00.692Z,65.85
2019-04-07T09:38:39.734Z,66.53
2019-04-07T09:41:12.222Z,65.31
2019-04-07T09:43:51.814Z,64.33
2019-04-07T09:46:24.930Z,63.16
2019-04-07T09:49:01.900Z,63.86
2019-04-07T09:51:41.617Z,63.86
2019-04-07T09:54:12.241Z,64.16
2019-04-07T09:56:46.095Z,65.28
2019-04-07T09:59:19.562Z,64.40
2019-04-07T10:02:06.020Z,64.76
2019-04-07T10:04:50.745Z,64.34
2019-04-07T10:07:24.020Z,64.67
2019-04-07T10:10:12.990Z,65.17
2019-04-07T10:12:58.092Z,64.65
2019-04-07T10:15:31.687Z,64.44
2019-04-07T10:18:02.075Z,64.59
2019-04-07T10:20:44.535Z,64.56
2019-04-07T10:23:15.103Z,64.24
2019-04-07T10:26:04.094Z,64.09
2019-04-07T10:28:46.621Z,63.12
2019-04-07T10:31:19.503Z,61.61
2019-04-07T10:34:03.583Z,60.89
2019-04-07T10:36:33.733Z,59.85
2019-04-07T10:39:20.876Z,59.75
2019-04-07T10:42:07.704Z,58.54
2019-04-07T10:44:40.946Z,57.17
2019-04-07T10:47:14.217Z,58.14
2019-04-07T10:50:07.223Z,56.92
2019-04-07T10:52:51.428Z,56.08
2019-04-07T10:55:38.063Z,53.45
2019-04-07T10:58:09.087Z,51.59
2019-04-07T11:00:55.888Z,47.88
2019-04-07T11:03:26.016Z,46.00
2019-04-07T11:05:57.061Z,44.79
2019-04-07T11:08:43.763Z,43.97
2019-04-07T11:11:30.372Z,42.33
2019-04-07T11:14:17.273Z,42.56
2019-04-07T11:16:53.778Z,44.50
2019-04-07T11:19:24.266Z,47.00
2019-04-07T11:22:00.905Z,47.34
2019-04-07T11:24:46.939Z,50.16
2019-04-07T11:27:33.611Z,49.96
2019-04-07T11:30:03.891Z,51.04
2019-04-07T11:32:50.157Z,51.36
2019-04-07T11:35:21.061Z,51.12
2019-04-07T11:37:53.974Z,50.00
2019-04-07T11:40:42.076Z,48.46
2019-04-07T11:43:05.406Z,46.65
2019-04-07T11:45:38.977Z,49.36
2019-04-07T11:48:12.221Z,48.27
2019-04-07T11:50:42.417Z,49.67
2019-04-07T11:53:25.839Z,49.02
2019-04-07T11:56:08.750Z,47.75
2019-04-07T11:58:51.612Z,48.29
2019-04-07T12:01:21.789Z,49.27
2019-04-07T12:04:10.208Z,48.72
2019-04-07T12:06:49.780Z,48.83
2019-04-07T12:09:20.658Z,49.00
2019-04-07T12:11:59.684Z,50.77
2019-04-07T12:14:33.735Z,50.50
2019-04-07T12:17:08.950Z,50.92
2019-04-07T12:19:38.797Z,50.89
2019-04-07T12:22:21.677Z,50.99
2019-04-07T12:24:51.909Z,52.83
2019-04-07T12:27:22.448Z,51.15
2019-04-07T12:29:58.667Z,51.43
2019-04-07T12:32:29.247Z,50.97
2019-04-07T12:35:08.541Z,49.88
2019-04-07T12:37:47.732Z,48.80
2019-04-07T12:40:30.683Z,50.17
2019-04-07T12:43:03.636Z,50.32
2019-04-07T12:45:42.768Z,49.11
2019-04-07T12:48:21.851Z,49.05
2019-04-07T12:50:52.328Z,49.48
2019-04-07T12:53:22.815Z,49.56
2019-04-07T12:55:59.500Z,50.36
2019-04-07T12:58:34.105Z,50.69
2019-04-07T13:01:21.195Z,50.00
2019-04-07T13:03:57.954Z,49.98
2019-04-07T13:06:31.008Z,50.39
2019-04-07T13:09:13.869Z,50.74
2019-04-07T13:12:02.945Z,50.40
2019-04-07T13:14:32.438Z,50.67
2019-04-07T13:17:14.876Z,51.31
2019-04-07T13:19:48.138Z,51.38
2019-04-07T13:22:29.935Z,50.95
2019-04-07T13:25:06.740Z,51.62
2019-04-07T13:27:48.349Z,51.95
2019-04-07T13:30:28.181Z,53.00
2019-04-07T13:33:01.665Z,54.27
2019-04-07T13:35:33.341Z,53.60
2019-04-07T13:38:20.747Z,53.00
2019-04-07T13:40:54.162Z,52.52
2019-04-07T13:43:31.165Z,52.52
2019-04-07T13:46:23.882Z,52.96
2019-04-07T13:48:53.682Z,51.48
2019-04-07T13:51:23.635Z,49.97
2019-04-07T13:54:10.931Z,49.93
2019-04-07T13:56:51.188Z,49.39
2019-04-07T13:59:21.463Z,51.43
2019-04-07T14:01:54.295Z,53.56
2019-04-07T14:04:39.197Z,55.02
2019-04-07T14:07:26.303Z,54.03
2019-04-07T14:10:04.374Z,54.31
2019-04-07T14:12:36.942Z,54.56
2019-04-07T14:15:16.911Z,54.41
2019-04-07T14:17:53.649Z,55.11
2019-04-07T14:20:30.402Z,53.61
2019-04-07T14:23:01.020Z,53.42
2019-04-07T14:25:34.547Z,55.62
2019-04-07T14:28:04.754Z,57.37
2019-04-07T14:30:40.855Z,57.97
2019-04-07T14:33:11.139Z,59.62
2019-04-07T14:35:42.150Z,60.63
2019-04-07T14:38:13.540Z,60.75
2019-04-07T14:40:46.833Z,59.84
2019-04-07T14:43:29.904Z,59.98
2019-04-07T14:46:01.115Z,61.07
2019-04-07T14:48:46.520Z,60.56
2019-04-07T14:51:17.523Z,61.00
2019-04-07T14:54:06.457Z,61.87
2019-04-07T14:56:49.134Z,63.05
2019-04-07T14:59:31.288Z,62.48
2019-04-07T15:02:01.729Z,62.97
2019-04-07T15:04:31.979Z,64.28
2019-04-07T15:07:17.265Z,64.51
2019-04-07T15:09:51.244Z,64.54
2019-04-07T15:12:24.312Z,64.33
2019-04-07T15:14:52.601Z,62.99
2019-04-07T15:17:21.031Z,63.52
2019-04-07T15:19:50.461Z,63.46
2019-04-07T15:22:20.677Z,63.44
2019-04-07T15:24:49.921Z,63.95
2019-04-07T15:27:22.051Z,63.46
2019-04-07T15:29:49.214Z,62.68
2019-04-07T15:32:18.109Z,63.04
2019-04-07T15:34:46.703Z,63.82
2019-04-07T15:37:15.441Z,63.99
2019-04-07T15:39:44.564Z,63.68
2019-04-07T15:42:15.320Z,64.59
2019-04-07T15:44:43.662Z,64.87
2019-04-07T15:47:12.336Z,63.75
2019-04-07T15:49:40.808Z,64.84
2019-04-07T15:52:10.138Z,64.48
2019-04-07T15:54:39.160Z,65.07
2019-04-07T15:57:07.760Z,65.51
2019-04-07T15:59:36.264Z,65.34
2019-04-07T16:02:08.491Z,65.24
2019-04-07T16:04:36.152Z,65.67
2019-04-07T16:07:05.001Z,65.18
2019-04-07T16:09:40.388Z,65.51
2019-04-07T16:12:04.226Z,66.45
2019-04-07T16:14:32.823Z,66.35
2019-04-07T16:17:04.297Z,66.83
2019-04-07T16:19:38.852Z,66.68
2019-04-07T16:22:02.031Z,67.71
2019-04-07T16:24:31.161Z,68.16
2019-04-07T16:27:03.313Z,68.50
2019-04-07T16:29:30.460Z,70.66
2019-04-07T16:31:59.936Z,71.96
2019-04-07T16:34:28.520Z,72.12
2019-04-07T16:36:59.364Z,73.94
2019-04-07T16:39:29.164Z,73.17
2019-04-07T16:41:57.879Z,75.31
2019-04-07T16:44:26.650Z,75.38
2019-04-07T16:46:57.755Z,76.14
2019-04-07T16:49:26.353Z,76.54
2019-04-07T16:51:58.346Z,78.31
2019-04-07T16:54:25.216Z,77.70
2019-04-07T16:56:56.943Z,76.79
2019-04-07T16:59:23.982Z,79.15
2019-04-07T17:01:52.971Z,80.33
2019-04-07T17:04:21.583Z,82.37
2019-04-07T17:06:59.503Z,83.03
2019-04-07T17:09:24.124Z,82.50
2019-04-07T17:11:51.579Z,82.81
2019-04-07T17:14:20.255Z,83.73
2019-04-07T17:16:48.774Z,85.11
2019-04-07T17:19:18.184Z,85.54
2019-04-07T17:21:47.088Z,85.67
2019-04-07T17:24:15.708Z,85.79
2019-04-07T17:26:44.322Z,86.15
2019-04-07T17:29:16.980Z,84.17
2019-04-07T17:31:43.380Z,84.71
2019-04-07T17:34:14.024Z,85.99
2019-04-07T17:36:42.862Z,86.41
2019-04-07T17:39:22.796Z,85.00
2019-04-07T17:41:52.512Z,85.19
2019-04-07T17:44:35.116Z,84.61
2019-04-07T17:47:08.494Z,84.47
2019-04-07T17:49:39.571Z,86.16
2019-04-07T17:52:26.162Z,85.38
2019-04-07T17:54:56.292Z,86.08
2019-04-07T17:57:29.257Z,84.06
2019-04-07T18:00:18.582Z,85.52
2019-04-07T18:02:54.817Z,85.05
2019-04-07T18:05:23.604Z,86.02
2019-04-07T18:07:55.138Z,86.91
2019-04-07T18:10:37.379Z,86.02
2019-04-07T18:13:22.833Z,86.04
2019-04-07T18:15:51.734Z,86.51
2019-04-07T18:18:31.500Z,86.64
2019-04-07T18:21:13.297Z,87.61
2019-04-07T18:23:45.063Z,87.09
2019-04-07T18:26:35.462Z,87.32
2019-04-07T18:29:14.731Z,87.99
2019-04-07T18:32:01.880Z,86.76
2019-04-07T18:34:33.308Z,87.31
2019-04-07T18:37:20.561Z,86.77
2019-04-07T18:40:00.673Z,85.73
2019-04-07T18:42:35.016Z,86.57
2019-04-07T18:45:12.170Z,87.41
2019-04-07T18:47:52.269Z,86.07
2019-04-07T18:50:27.322Z,85.92
2019-04-07T18:53:14.478Z,86.56
2019-04-07T18:55:53.792Z,87.03
2019-04-07T18:58:24.507Z,86.30
2019-04-07T19:01:08.912Z,86.40
2019-04-07T19:03:39.599Z,87.25
2019-04-07T19:06:12.774Z,87.85
2019-04-07T19:08:44.949Z,87.06
2019-04-07T19:11:30.851Z,87.77
2019-04-07T19:14:25.955Z,88.24
2019-04-07T19:16:47.095Z,88.64
2019-04-07T19:19:33.385Z,88.18
2019-04-07T19:22:06.695Z,88.08
2019-04-07T19:24:37.805Z,89.40
2019-04-07T19:27:28.619Z,89.37
2019-04-07T19:30:02.086Z,89.43
2019-04-07T19:32:34.755Z,89.34
2019-04-07T19:35:15.260Z,89.56
2019-04-07T19:37:50.834Z,89.42
2019-04-07T19:40:27.697Z,90.34
2019-04-07T19:43:12.535Z,90.32
2019-04-07T19:45:59.015Z,89.46
2019-04-07T19:48:39.038Z,89.67
2019-04-07T19:51:10.006Z,89.73
2019-04-07T19:53:55.799Z,90.18
2019-04-07T19:56:29.388Z,90.07
2019-04-07T19:59:08.226Z,90.31
2019-04-07T20:01:53.508Z,90.68
2019-04-07T20:04:30.483Z,89.70
2019-04-07T20:07:13.657Z,90.29
2019-04-07T20:09:52.910Z,90.52
2019-04-07T20:12:25.426Z,90.50
2019-04-07T20:15:14.804Z,90.60
2019-04-07T20:17:43.812Z,91.18
2019-04-07T20:20:17.432Z,90.99
2019-04-07T20:22:58.482Z,90.30
2019-04-07T20:25:37.561Z,89.76
2019-04-07T20:28:19.693Z,90.39
2019-04-07T20:31:06.009Z,90.95
2019-04-07T20:33:36.193Z,90.96
2019-04-07T20:36:24.158Z,90.48
2019-04-07T20:39:07.301Z,90.50
2019-04-07T20:41:38.005Z,90.76
2019-04-07T20:44:08.201Z,91.16
2019-04-07T20:46:47.275Z,90.34
2019-04-07T20:49:35.506Z,90.47
2019-04-07T20:52:24.003Z,90.65
2019-04-07T20:55:05.446Z,90.38
2019-04-07T20:57:34.320Z,91.18
2019-04-07T21:00:16.530Z,91.22
2019-04-07T21:03:10.757Z,90.95
2019-04-07T21:05:29.238Z,91.44
2019-04-07T21:08:08.317Z,92.40
2019-04-07T21:10:45.577Z,92.54
2019-04-07T21:13:16.769Z,91.67
2019-04-07T21:15:54.148Z,92.22
2019-04-07T21:18:42.747Z,92.28
2019-04-07T21:21:19.292Z,93.40
2019-04-07T21:23:49.791Z,93.57
2019-04-07T21:26:37.618Z,92.82
2019-04-07T21:29:23.913Z,91.79
2019-04-07T21:31:57.230Z,91.62
2019-04-07T21:34:33.479Z,90.44
2019-04-07T21:37:03.591Z,90.08
2019-04-07T21:39:45.687Z,90.31
2019-04-07T21:42:27.804Z,90.72
2019-04-07T21:45:14.773Z,91.62
2019-04-07T21:48:01.357Z,91.44
2019-04-07T21:50:46.818Z,91.77
2019-04-07T21:53:16.871Z,91.44
2019-04-07T21:55:53.275Z,92.01
2019-04-07T21:58:39.911Z,92.63
2019-04-07T22:01:12.974Z,93.02
2019-04-07T22:03:58.775Z,93.48
2019-04-07T22:06:32.135Z,93.41
2019-04-07T22:09:08.847Z,93.11
2019-04-07T22:11:37.431Z,92.81
2019-04-07T22:14:07.617Z,93.34
2019-04-07T22:16:36.404Z,93.28
2019-04-07T22:19:09.369Z,93.35
2019-04-07T22:21:36.202Z,92.29
2019-04-07T22:24:05.253Z,92.51
2019-04-07T22:26:33.787Z,92.49
2019-04-07T22:29:04.030Z,93.18
2019-04-07T22:31:46.911Z,93.59
2019-04-07T22:34:16.490Z,94.11
2019-04-07T22:36:47.641Z,93.88
2019-04-07T22:39:16.236Z,93.82
2019-04-07T22:41:44.741Z,93.46
2019-04-07T22:44:19.928Z,93.52
2019-04-07T22:46:49.916Z,94.06
2019-04-07T22:49:17.633Z,94.17
2019-04-07T22:51:48.298Z,94.15
2019-04-07T22:54:16.711Z,93.85
2019-04-07T22:56:45.401Z,93.43
2019-04-07T22:59:13.849Z,93.29
2019-04-07T23:01:43.107Z,93.60
2019-04-07T23:04:12.013Z,93.77
2019-04-07T23:06:40.574Z,93.94
2019-04-07T23:09:09.967Z,94.26
2019-04-07T23:11:41.514Z,94.57
2019-04-07T23:14:09.968Z,94.47
2019-04-07T23:16:38.459Z,93.68
2019-04-07T23:19:06.863Z,92.22
2019-04-07T23:21:35.392Z,92.00
2019-04-07T23:24:03.948Z,91.65
2019-04-07T23:26:32.457Z,92.07
2019-04-07T23:29:00.879Z,92.22
2019-04-07T23:31:32.001Z,92.41
2019-04-07T23:34:00.701Z,92.25
2019-04-07T23:36:29.247Z,92.72
2019-04-07T23:38:58.059Z,93.08
2019-04-07T23:41:27.735Z,93.22
2019-04-07T23:43:56.796Z,93.57
2019-04-07T23:46:27.188Z,93.73
2019-04-07T23:48:56.003Z,93.92
2019-04-07T23:51:24.469Z,93.67
2019-04-07T23:54:14.343Z,93.95
2019-04-07T23:56:44.215Z,93.73
2019-04-07T23:59:14.438Z,93.47
